sensor_id;sensor_type;location;lat;lon;timestamp;P1;durP1;ratioP1;P2;durP2;ratioP2
76617;SDS011;65509;42.816;74.648;2023-04-30T00:00:59;11.18;;;2.40;;
76617;SDS011;65509;42.816;74.648;2023-04-30T00:03:24;14.77;;;2.83;;
76617;SDS011;65509;42.816;74.648;2023-04-30T00:05:50;7.40;;;2.20;;
76617;SDS011;65509;42.816;74.648;2023-04-30T00:08:16;14.75;;;3.05;;
76617;SDS011;65509;42.816;74.648;2023-04-30T00:10:42;10.25;;;2.40;;
76617;SDS011;65509;42.816;74.648;2023-04-30T00:13:07;16.25;;;2.83;;
76617;SDS011;65509;42.816;74.648;2023-04-30T00:15:34;10.60;;;2.53;;
76617;SDS011;65509;42.816;74.648;2023-04-30T00:18:00;10.35;;;2.63;;
76617;SDS011;65509;42.816;74.648;2023-04-30T00:20:25;15.23;;;2.63;;
76617;SDS011;65509;42.816;74.648;2023-04-30T00:22:54;17.05;;;2.42;;
76617;SDS011;65509;42.816;74.648;2023-04-30T00:25:25;10.57;;;2.53;;
76617;SDS011;65509;42.816;74.648;2023-04-30T00:28:02;14.82;;;2.50;;
76617;SDS011;65509;42.816;74.648;2023-04-30T00:30:28;24.70;;;3.45;;
76617;SDS011;65509;42.816;74.648;2023-04-30T00:33:03;13.77;;;2.53;;
76617;SDS011;65509;42.816;74.648;2023-04-30T00:35:35;17.13;;;2.85;;
76617;SDS011;65509;42.816;74.648;2023-04-30T00:38:06;9.85;;;2.55;;
76617;SDS011;65509;42.816;74.648;2023-04-30T00:40:42;5.80;;;2.22;;
76617;SDS011;65509;42.816;74.648;2023-04-30T00:43:07;8.40;;;1.90;;
76617;SDS011;65509;42.816;74.648;2023-04-30T00:45:40;11.73;;;2.40;;
76617;SDS011;65509;42.816;74.648;2023-04-30T00:48:12;16.63;;;2.75;;
76617;SDS011;65509;42.816;74.648;2023-04-30T00:50:44;15.60;;;3.00;;
76617;SDS011;65509;42.816;74.648;2023-04-30T00:53:10;21.52;;;3.13;;
76617;SDS011;65509;42.816;74.648;2023-04-30T00:55:39;11.60;;;2.05;;
76617;SDS011;65509;42.816;74.648;2023-04-30T00:58:06;15.13;;;2.63;;
76617;SDS011;65509;42.816;74.648;2023-04-30T01:00:37;10.60;;;2.30;;
76617;SDS011;65509;42.816;74.648;2023-04-30T01:03:03;10.57;;;2.25;;
76617;SDS011;65509;42.816;74.648;2023-04-30T01:05:30;12.50;;;2.10;;
76617;SDS011;65509;42.816;74.648;2023-04-30T01:07:56;11.88;;;3.22;;
76617;SDS011;65509;42.816;74.648;2023-04-30T01:10:24;11.70;;;2.88;;
76617;SDS011;65509;42.816;74.648;2023-04-30T01:13:01;9.65;;;2.97;;
76617;SDS011;65509;42.816;74.648;2023-04-30T01:17:54;11.73;;;3.10;;
76617;SDS011;65509;42.816;74.648;2023-04-30T01:20:27;12.73;;;3.08;;
76617;SDS011;65509;42.816;74.648;2023-04-30T01:25:34;10.00;;;2.78;;
76617;SDS011;65509;42.816;74.648;2023-04-30T01:28:07;12.68;;;2.55;;
76617;SDS011;65509;42.816;74.648;2023-04-30T01:30:48;9.90;;;2.50;;
76617;SDS011;65509;42.816;74.648;2023-04-30T01:33:14;14.90;;;2.80;;
76617;SDS011;65509;42.816;74.648;2023-04-30T01:38:32;7.22;;;2.03;;
76617;SDS011;65509;42.816;74.648;2023-04-30T01:41:32;19.52;;;3.10;;
76617;SDS011;65509;42.816;74.648;2023-04-30T01:44:11;12.23;;;3.10;;
76617;SDS011;65509;42.816;74.648;2023-04-30T01:46:42;11.63;;;3.08;;
76617;SDS011;65509;42.816;74.648;2023-04-30T01:51:39;18.38;;;3.33;;
76617;SDS011;65509;42.816;74.648;2023-04-30T01:54:26;16.80;;;4.28;;
76617;SDS011;65509;42.816;74.648;2023-04-30T01:56:55;10.02;;;3.03;;
76617;SDS011;65509;42.816;74.648;2023-04-30T01:59:26;18.05;;;2.83;;
76617;SDS011;65509;42.816;74.648;2023-04-30T02:01:52;18.40;;;2.97;;
76617;SDS011;65509;42.816;74.648;2023-04-30T02:04:18;11.95;;;2.92;;
76617;SDS011;65509;42.816;74.648;2023-04-30T02:06:46;7.88;;;2.15;;
76617;SDS011;65509;42.816;74.648;2023-04-30T02:09:12;16.77;;;3.63;;
76617;SDS011;65509;42.816;74.648;2023-04-30T02:11:37;16.83;;;4.20;;
76617;SDS011;65509;42.816;74.648;2023-04-30T02:14:05;12.90;;;3.35;;
76617;SDS011;65509;42.816;74.648;2023-04-30T02:16:30;12.43;;;3.08;;
76617;SDS011;65509;42.816;74.648;2023-04-30T02:18:56;14.57;;;2.65;;
76617;SDS011;65509;42.816;74.648;2023-04-30T02:21:21;13.27;;;3.10;;
76617;SDS011;65509;42.816;74.648;2023-04-30T02:23:47;11.82;;;2.60;;
76617;SDS011;65509;42.816;74.648;2023-04-30T02:26:12;18.20;;;2.92;;
76617;SDS011;65509;42.816;74.648;2023-04-30T02:28:38;17.38;;;3.38;;
76617;SDS011;65509;42.816;74.648;2023-04-30T02:31:03;34.03;;;4.47;;
76617;SDS011;65509;42.816;74.648;2023-04-30T02:33:29;29.10;;;4.07;;
76617;SDS011;65509;42.816;74.648;2023-04-30T02:35:54;40.92;;;5.18;;
76617;SDS011;65509;42.816;74.648;2023-04-30T02:38:20;29.98;;;4.05;;
76617;SDS011;65509;42.816;74.648;2023-04-30T02:40:45;34.25;;;4.53;;
76617;SDS011;65509;42.816;74.648;2023-04-30T02:43:11;33.00;;;4.75;;
76617;SDS011;65509;42.816;74.648;2023-04-30T02:45:36;32.05;;;4.65;;
76617;SDS011;65509;42.816;74.648;2023-04-30T02:48:02;19.48;;;3.40;;
76617;SDS011;65509;42.816;74.648;2023-04-30T02:50:27;31.70;;;4.10;;
76617;SDS011;65509;42.816;74.648;2023-04-30T02:52:53;37.75;;;4.28;;
76617;SDS011;65509;42.816;74.648;2023-04-30T02:55:20;24.52;;;3.65;;
76617;SDS011;65509;42.816;74.648;2023-04-30T02:57:45;31.45;;;4.05;;
76617;SDS011;65509;42.816;74.648;2023-04-30T03:00:11;28.77;;;3.63;;
76617;SDS011;65509;42.816;74.648;2023-04-30T03:02:37;54.67;;;6.20;;
76617;SDS011;65509;42.816;74.648;2023-04-30T03:05:02;22.38;;;3.05;;
76617;SDS011;65509;42.816;74.648;2023-04-30T03:07:28;42.88;;;4.28;;
76617;SDS011;65509;42.816;74.648;2023-04-30T03:09:56;28.55;;;3.72;;
76617;SDS011;65509;42.816;74.648;2023-04-30T03:12:22;33.38;;;4.75;;
76617;SDS011;65509;42.816;74.648;2023-04-30T03:14:50;31.60;;;4.57;;
76617;SDS011;65509;42.816;74.648;2023-04-30T03:17:16;46.13;;;5.22;;
76617;SDS011;65509;42.816;74.648;2023-04-30T03:19:41;44.38;;;5.63;;
76617;SDS011;65509;42.816;74.648;2023-04-30T03:22:07;45.40;;;5.63;;
76617;SDS011;65509;42.816;74.648;2023-04-30T03:24:32;45.42;;;6.13;;
76617;SDS011;65509;42.816;74.648;2023-04-30T03:26:58;36.45;;;5.43;;
76617;SDS011;65509;42.816;74.648;2023-04-30T03:29:24;37.50;;;5.63;;
76617;SDS011;65509;42.816;74.648;2023-04-30T03:31:49;28.15;;;4.72;;
76617;SDS011;65509;42.816;74.648;2023-04-30T03:34:15;28.65;;;4.53;;
76617;SDS011;65509;42.816;74.648;2023-04-30T03:36:40;36.78;;;5.00;;
76617;SDS011;65509;42.816;74.648;2023-04-30T03:39:06;29.48;;;4.70;;
76617;SDS011;65509;42.816;74.648;2023-04-30T03:41:33;34.95;;;5.45;;
76617;SDS011;65509;42.816;74.648;2023-04-30T03:43:59;41.33;;;5.68;;
76617;SDS011;65509;42.816;74.648;2023-04-30T03:46:24;39.90;;;5.68;;
76617;SDS011;65509;42.816;74.648;2023-04-30T03:48:50;30.02;;;4.88;;
76617;SDS011;65509;42.816;74.648;2023-04-30T03:51:16;23.48;;;3.45;;
76617;SDS011;65509;42.816;74.648;2023-04-30T03:53:42;42.83;;;6.25;;
76617;SDS011;65509;42.816;74.648;2023-04-30T03:56:07;34.65;;;5.28;;
76617;SDS011;65509;42.816;74.648;2023-04-30T03:58:32;40.53;;;5.72;;
76617;SDS011;65509;42.816;74.648;2023-04-30T04:00:58;39.22;;;5.68;;
76617;SDS011;65509;42.816;74.648;2023-04-30T04:03:23;34.22;;;5.45;;
76617;SDS011;65509;42.816;74.648;2023-04-30T04:05:49;29.38;;;5.43;;
76617;SDS011;65509;42.816;74.648;2023-04-30T04:08:15;46.30;;;5.47;;
76617;SDS011;65509;42.816;74.648;2023-04-30T04:10:40;37.40;;;6.40;;
76617;SDS011;65509;42.816;74.648;2023-04-30T04:13:06;39.28;;;5.95;;
76617;SDS011;65509;42.816;74.648;2023-04-30T04:15:32;34.20;;;6.00;;
76617;SDS011;65509;42.816;74.648;2023-04-30T04:17:58;48.47;;;7.15;;
76617;SDS011;65509;42.816;74.648;2023-04-30T04:20:23;40.88;;;6.78;;
76617;SDS011;65509;42.816;74.648;2023-04-30T04:22:57;44.60;;;7.68;;
76617;SDS011;65509;42.816;74.648;2023-04-30T04:25:23;59.35;;;8.93;;
76617;SDS011;65509;42.816;74.648;2023-04-30T04:27:51;48.28;;;8.48;;
76617;SDS011;65509;42.816;74.648;2023-04-30T04:30:17;35.00;;;7.45;;
76617;SDS011;65509;42.816;74.648;2023-04-30T04:32:42;74.57;;;10.13;;
76617;SDS011;65509;42.816;74.648;2023-04-30T04:35:14;49.00;;;8.05;;
76617;SDS011;65509;42.816;74.648;2023-04-30T04:37:39;50.95;;;8.98;;
76617;SDS011;65509;42.816;74.648;2023-04-30T04:40:08;38.22;;;6.80;;
76617;SDS011;65509;42.816;74.648;2023-04-30T04:42:36;41.13;;;6.50;;
76617;SDS011;65509;42.816;74.648;2023-04-30T04:45:04;43.95;;;6.53;;
76617;SDS011;65509;42.816;74.648;2023-04-30T04:47:30;42.60;;;7.18;;
76617;SDS011;65509;42.816;74.648;2023-04-30T04:49:56;33.40;;;6.03;;
76617;SDS011;65509;42.816;74.648;2023-04-30T04:52:22;29.38;;;5.00;;
76617;SDS011;65509;42.816;74.648;2023-04-30T04:54:47;47.45;;;6.50;;
76617;SDS011;65509;42.816;74.648;2023-04-30T04:57:13;27.48;;;4.95;;
76617;SDS011;65509;42.816;74.648;2023-04-30T04:59:41;39.08;;;5.43;;
76617;SDS011;65509;42.816;74.648;2023-04-30T05:02:09;40.03;;;6.32;;
76617;SDS011;65509;42.816;74.648;2023-04-30T05:04:35;42.45;;;6.68;;
76617;SDS011;65509;42.816;74.648;2023-04-30T05:07:00;29.52;;;5.13;;
76617;SDS011;65509;42.816;74.648;2023-04-30T05:09:31;35.25;;;5.28;;
76617;SDS011;65509;42.816;74.648;2023-04-30T05:11:57;70.95;;;8.35;;
76617;SDS011;65509;42.816;74.648;2023-04-30T05:14:22;35.90;;;6.15;;
76617;SDS011;65509;42.816;74.648;2023-04-30T05:17:02;40.33;;;5.85;;
76617;SDS011;65509;42.816;74.648;2023-04-30T05:19:27;42.47;;;6.47;;
76617;SDS011;65509;42.816;74.648;2023-04-30T05:21:53;49.05;;;7.25;;
76617;SDS011;65509;42.816;74.648;2023-04-30T05:24:18;67.43;;;8.48;;
76617;SDS011;65509;42.816;74.648;2023-04-30T05:26:43;47.92;;;5.82;;
76617;SDS011;65509;42.816;74.648;2023-04-30T05:29:09;50.53;;;6.18;;
76617;SDS011;65509;42.816;74.648;2023-04-30T05:31:36;33.88;;;5.47;;
76617;SDS011;65509;42.816;74.648;2023-04-30T05:34:01;44.88;;;5.45;;
76617;SDS011;65509;42.816;74.648;2023-04-30T05:36:27;37.92;;;4.90;;
76617;SDS011;65509;42.816;74.648;2023-04-30T05:38:56;42.58;;;5.72;;
76617;SDS011;65509;42.816;74.648;2023-04-30T05:41:22;37.90;;;4.97;;
76617;SDS011;65509;42.816;74.648;2023-04-30T05:43:47;52.28;;;6.07;;
76617;SDS011;65509;42.816;74.648;2023-04-30T05:46:12;39.03;;;5.53;;
76617;SDS011;65509;42.816;74.648;2023-04-30T05:48:38;63.92;;;6.85;;
76617;SDS011;65509;42.816;74.648;2023-04-30T05:51:04;37.58;;;5.28;;
76617;SDS011;65509;42.816;74.648;2023-04-30T05:53:35;33.92;;;4.97;;
76617;SDS011;65509;42.816;74.648;2023-04-30T05:56:00;29.38;;;5.18;;
76617;SDS011;65509;42.816;74.648;2023-04-30T05:58:26;42.25;;;4.70;;
76617;SDS011;65509;42.816;74.648;2023-04-30T06:00:51;38.22;;;5.28;;
76617;SDS011;65509;42.816;74.648;2023-04-30T06:03:17;39.97;;;5.22;;
76617;SDS011;65509;42.816;74.648;2023-04-30T06:05:43;34.92;;;4.65;;
76617;SDS011;65509;42.816;74.648;2023-04-30T06:08:09;33.95;;;5.25;;
76617;SDS011;65509;42.816;74.648;2023-04-30T06:10:34;40.97;;;5.57;;
76617;SDS011;65509;42.816;74.648;2023-04-30T06:13:00;52.35;;;6.22;;
76617;SDS011;65509;42.816;74.648;2023-04-30T06:15:26;36.63;;;4.43;;
76617;SDS011;65509;42.816;74.648;2023-04-30T06:17:51;45.45;;;5.88;;
76617;SDS011;65509;42.816;74.648;2023-04-30T06:20:17;50.25;;;6.88;;
76617;SDS011;65509;42.816;74.648;2023-04-30T06:22:42;33.92;;;4.60;;
76617;SDS011;65509;42.816;74.648;2023-04-30T06:25:08;36.20;;;5.00;;
76617;SDS011;65509;42.816;74.648;2023-04-30T06:27:33;37.95;;;5.60;;
76617;SDS011;65509;42.816;74.648;2023-04-30T06:29:59;55.38;;;6.95;;
76617;SDS011;65509;42.816;74.648;2023-04-30T06:32:25;33.15;;;5.43;;
76617;SDS011;65509;42.816;74.648;2023-04-30T06:34:51;43.35;;;6.28;;
76617;SDS011;65509;42.816;74.648;2023-04-30T06:37:24;41.88;;;5.68;;
76617;SDS011;65509;42.816;74.648;2023-04-30T06:39:49;59.05;;;9.05;;
76617;SDS011;65509;42.816;74.648;2023-04-30T06:42:15;44.58;;;6.22;;
76617;SDS011;65509;42.816;74.648;2023-04-30T06:44:41;42.85;;;6.07;;
76617;SDS011;65509;42.816;74.648;2023-04-30T06:47:06;40.67;;;5.90;;
76617;SDS011;65509;42.816;74.648;2023-04-30T06:49:33;38.63;;;5.30;;
76617;SDS011;65509;42.816;74.648;2023-04-30T06:51:59;47.13;;;5.72;;
76617;SDS011;65509;42.816;74.648;2023-04-30T06:54:25;38.65;;;5.60;;
76617;SDS011;65509;42.816;74.648;2023-04-30T06:56:51;44.70;;;6.43;;
76617;SDS011;65509;42.816;74.648;2023-04-30T06:59:17;42.70;;;5.70;;
76617;SDS011;65509;42.816;74.648;2023-04-30T07:01:42;30.25;;;5.43;;
76617;SDS011;65509;42.816;74.648;2023-04-30T07:04:08;34.78;;;5.55;;
76617;SDS011;65509;42.816;74.648;2023-04-30T07:06:33;40.40;;;6.03;;
76617;SDS011;65509;42.816;74.648;2023-04-30T07:08:59;43.58;;;5.60;;
76617;SDS011;65509;42.816;74.648;2023-04-30T07:11:24;51.00;;;5.60;;
76617;SDS011;65509;42.816;74.648;2023-04-30T07:13:50;65.70;;;7.00;;
76617;SDS011;65509;42.816;74.648;2023-04-30T07:16:15;46.95;;;5.60;;
76617;SDS011;65509;42.816;74.648;2023-04-30T07:18:41;59.00;;;7.03;;
76617;SDS011;65509;42.816;74.648;2023-04-30T07:21:07;60.85;;;5.88;;
76617;SDS011;65509;42.816;74.648;2023-04-30T07:23:33;51.30;;;5.70;;
76617;SDS011;65509;42.816;74.648;2023-04-30T07:25:58;80.10;;;6.70;;
76617;SDS011;65509;42.816;74.648;2023-04-30T07:28:24;41.88;;;3.95;;
76617;SDS011;65509;42.816;74.648;2023-04-30T07:30:49;43.63;;;4.85;;
76617;SDS011;65509;42.816;74.648;2023-04-30T07:33:15;50.58;;;5.15;;
76617;SDS011;65509;42.816;74.648;2023-04-30T07:35:40;42.75;;;4.78;;
76617;SDS011;65509;42.816;74.648;2023-04-30T07:38:06;43.67;;;4.93;;
76617;SDS011;65509;42.816;74.648;2023-04-30T07:40:41;39.33;;;4.20;;
76617;SDS011;65509;42.816;74.648;2023-04-30T07:43:06;41.67;;;4.10;;
76617;SDS011;65509;42.816;74.648;2023-04-30T07:45:32;37.42;;;3.00;;
76617;SDS011;65509;42.816;74.648;2023-04-30T07:47:58;48.42;;;6.00;;
76617;SDS011;65509;42.816;74.648;2023-04-30T07:50:25;22.90;;;3.75;;
76617;SDS011;65509;42.816;74.648;2023-04-30T07:52:52;28.80;;;4.35;;
76617;SDS011;65509;42.816;74.648;2023-04-30T07:55:18;36.35;;;4.68;;
76617;SDS011;65509;42.816;74.648;2023-04-30T07:57:43;44.78;;;5.60;;
76617;SDS011;65509;42.816;74.648;2023-04-30T08:00:09;50.17;;;5.50;;
76617;SDS011;65509;42.816;74.648;2023-04-30T08:02:34;44.05;;;5.20;;
76617;SDS011;65509;42.816;74.648;2023-04-30T08:05:01;43.13;;;6.15;;
76617;SDS011;65509;42.816;74.648;2023-04-30T08:07:28;37.47;;;5.30;;
76617;SDS011;65509;42.816;74.648;2023-04-30T08:09:56;41.00;;;5.35;;
76617;SDS011;65509;42.816;74.648;2023-04-30T08:12:21;38.10;;;4.72;;
76617;SDS011;65509;42.816;74.648;2023-04-30T08:14:47;65.60;;;6.15;;
76617;SDS011;65509;42.816;74.648;2023-04-30T08:17:15;53.58;;;4.90;;
76617;SDS011;65509;42.816;74.648;2023-04-30T08:19:41;54.17;;;5.15;;
76617;SDS011;65509;42.816;74.648;2023-04-30T08:22:06;67.88;;;6.43;;
76617;SDS011;65509;42.816;74.648;2023-04-30T08:24:32;55.30;;;5.03;;
76617;SDS011;65509;42.816;74.648;2023-04-30T08:26:57;45.83;;;4.82;;
76617;SDS011;65509;42.816;74.648;2023-04-30T08:29:26;38.08;;;4.85;;
76617;SDS011;65509;42.816;74.648;2023-04-30T08:31:55;47.40;;;4.72;;
76617;SDS011;65509;42.816;74.648;2023-04-30T08:34:22;40.45;;;4.63;;
76617;SDS011;65509;42.816;74.648;2023-04-30T08:36:56;37.15;;;4.60;;
76617;SDS011;65509;42.816;74.648;2023-04-30T08:39:23;45.17;;;4.57;;
76617;SDS011;65509;42.816;74.648;2023-04-30T08:41:52;33.25;;;4.60;;
76617;SDS011;65509;42.816;74.648;2023-04-30T08:44:20;31.08;;;6.22;;
76617;SDS011;65509;42.816;74.648;2023-04-30T08:46:47;38.08;;;6.25;;
76617;SDS011;65509;42.816;74.648;2023-04-30T08:49:13;45.30;;;9.27;;
76617;SDS011;65509;42.816;74.648;2023-04-30T08:51:39;36.38;;;7.72;;
76617;SDS011;65509;42.816;74.648;2023-04-30T08:54:22;37.28;;;6.00;;
76617;SDS011;65509;42.816;74.648;2023-04-30T08:57:04;31.42;;;4.93;;
76617;SDS011;65509;42.816;74.648;2023-04-30T08:59:29;33.80;;;4.65;;
76617;SDS011;65509;42.816;74.648;2023-04-30T09:01:55;57.13;;;8.02;;
76617;SDS011;65509;42.816;74.648;2023-04-30T09:04:27;41.05;;;4.75;;
76617;SDS011;65509;42.816;74.648;2023-04-30T09:06:53;41.25;;;7.10;;
76617;SDS011;65509;42.816;74.648;2023-04-30T09:09:26;33.42;;;5.97;;
76617;SDS011;65509;42.816;74.648;2023-04-30T09:11:52;43.53;;;6.40;;
76617;SDS011;65509;42.816;74.648;2023-04-30T09:14:22;26.40;;;5.25;;
76617;SDS011;65509;42.816;74.648;2023-04-30T09:16:49;32.15;;;4.90;;
76617;SDS011;65509;42.816;74.648;2023-04-30T09:19:25;33.88;;;6.55;;
76617;SDS011;65509;42.816;74.648;2023-04-30T09:21:51;33.88;;;6.07;;
76617;SDS011;65509;42.816;74.648;2023-04-30T09:24:17;32.15;;;5.55;;
76617;SDS011;65509;42.816;74.648;2023-04-30T09:26:42;38.15;;;6.07;;
76617;SDS011;65509;42.816;74.648;2023-04-30T09:29:10;40.28;;;6.07;;
76617;SDS011;65509;42.816;74.648;2023-04-30T09:31:36;36.35;;;6.00;;
76617;SDS011;65509;42.816;74.648;2023-04-30T09:34:02;45.38;;;6.57;;
76617;SDS011;65509;42.816;74.648;2023-04-30T09:36:28;37.53;;;5.30;;
76617;SDS011;65509;42.816;74.648;2023-04-30T09:39:04;40.33;;;5.38;;
76617;SDS011;65509;42.816;74.648;2023-04-30T09:41:30;37.92;;;5.15;;
76617;SDS011;65509;42.816;74.648;2023-04-30T09:43:56;26.25;;;3.78;;
76617;SDS011;65509;42.816;74.648;2023-04-30T09:46:28;42.80;;;5.40;;
76617;SDS011;65509;42.816;74.648;2023-04-30T09:48:55;33.25;;;6.05;;
76617;SDS011;65509;42.816;74.648;2023-04-30T09:51:21;28.65;;;5.45;;
76617;SDS011;65509;42.816;74.648;2023-04-30T09:53:46;35.25;;;5.65;;
76617;SDS011;65509;42.816;74.648;2023-04-30T09:56:13;22.38;;;4.70;;
76617;SDS011;65509;42.816;74.648;2023-04-30T09:58:40;29.50;;;4.53;;
76617;SDS011;65509;42.816;74.648;2023-04-30T10:01:08;31.02;;;5.07;;
76617;SDS011;65509;42.816;74.648;2023-04-30T10:03:36;24.27;;;5.20;;
76617;SDS011;65509;42.816;74.648;2023-04-30T10:06:02;33.03;;;5.90;;
76617;SDS011;65509;42.816;74.648;2023-04-30T10:08:33;35.17;;;5.43;;
76617;SDS011;65509;42.816;74.648;2023-04-30T10:13:27;25.42;;;3.83;;
76617;SDS011;65509;42.816;74.648;2023-04-30T10:15:53;26.23;;;4.07;;
76617;SDS011;65509;42.816;74.648;2023-04-30T10:18:28;37.50;;;5.22;;
76617;SDS011;65509;42.816;74.648;2023-04-30T10:20:58;23.23;;;3.83;;
76617;SDS011;65509;42.816;74.648;2023-04-30T10:23:30;30.67;;;5.20;;
76617;SDS011;65509;42.816;74.648;2023-04-30T10:25:56;29.23;;;5.20;;
76617;SDS011;65509;42.816;74.648;2023-04-30T10:28:22;28.63;;;4.60;;
76617;SDS011;65509;42.816;74.648;2023-04-30T10:30:50;20.80;;;3.78;;
76617;SDS011;65509;42.816;74.648;2023-04-30T10:39:01;27.83;;;3.88;;
76617;SDS011;65509;42.816;74.648;2023-04-30T10:41:26;23.48;;;3.42;;
76617;SDS011;65509;42.816;74.648;2023-04-30T10:43:57;27.02;;;3.55;;
76617;SDS011;65509;42.816;74.648;2023-04-30T10:46:23;20.63;;;3.30;;
76617;SDS011;65509;42.816;74.648;2023-04-30T10:48:51;29.70;;;4.85;;
76617;SDS011;65509;42.816;74.648;2023-04-30T10:51:18;17.42;;;3.15;;
76617;SDS011;65509;42.816;74.648;2023-04-30T10:53:44;21.33;;;3.55;;
76617;SDS011;65509;42.816;74.648;2023-04-30T10:56:09;30.63;;;4.00;;
76617;SDS011;65509;42.816;74.648;2023-04-30T10:58:36;18.42;;;2.90;;
76617;SDS011;65509;42.816;74.648;2023-04-30T11:01:12;25.10;;;3.97;;
76617;SDS011;65509;42.816;74.648;2023-04-30T11:03:39;21.23;;;3.38;;
76617;SDS011;65509;42.816;74.648;2023-04-30T11:06:10;20.73;;;3.55;;
76617;SDS011;65509;42.816;74.648;2023-04-30T11:08:36;29.95;;;3.88;;
76617;SDS011;65509;42.816;74.648;2023-04-30T11:11:02;31.48;;;3.80;;
76617;SDS011;65509;42.816;74.648;2023-04-30T11:16:28;28.45;;;4.28;;
76617;SDS011;65509;42.816;74.648;2023-04-30T11:18:55;34.20;;;4.43;;
76617;SDS011;65509;42.816;74.648;2023-04-30T11:21:32;37.78;;;4.72;;
76617;SDS011;65509;42.816;74.648;2023-04-30T11:24:01;25.90;;;4.10;;
76617;SDS011;65509;42.816;74.648;2023-04-30T11:26:48;29.63;;;4.22;;
76617;SDS011;65509;42.816;74.648;2023-04-30T11:29:15;29.98;;;4.32;;
76617;SDS011;65509;42.816;74.648;2023-04-30T11:31:41;38.22;;;5.50;;
76617;SDS011;65509;42.816;74.648;2023-04-30T11:34:08;43.83;;;8.18;;
76617;SDS011;65509;42.816;74.648;2023-04-30T11:36:34;45.13;;;10.05;;
76617;SDS011;65509;42.816;74.648;2023-04-30T11:39:00;49.80;;;7.97;;
76617;SDS011;65509;42.816;74.648;2023-04-30T11:41:30;49.17;;;12.18;;
76617;SDS011;65509;42.816;74.648;2023-04-30T11:43:55;40.72;;;8.45;;
76617;SDS011;65509;42.816;74.648;2023-04-30T11:46:21;35.50;;;9.25;;
76617;SDS011;65509;42.816;74.648;2023-04-30T11:48:46;42.40;;;8.40;;
76617;SDS011;65509;42.816;74.648;2023-04-30T11:51:13;49.78;;;8.93;;
76617;SDS011;65509;42.816;74.648;2023-04-30T11:53:50;35.85;;;4.63;;
76617;SDS011;65509;42.816;74.648;2023-04-30T11:56:22;58.03;;;18.58;;
76617;SDS011;65509;42.816;74.648;2023-04-30T11:58:48;33.45;;;6.63;;
76617;SDS011;65509;42.816;74.648;2023-04-30T12:01:13;40.72;;;6.38;;
76617;SDS011;65509;42.816;74.648;2023-04-30T12:03:43;69.97;;;19.73;;
76617;SDS011;65509;42.816;74.648;2023-04-30T12:06:10;40.25;;;5.72;;
76617;SDS011;65509;42.816;74.648;2023-04-30T12:08:35;32.65;;;4.53;;
76617;SDS011;65509;42.816;74.648;2023-04-30T12:11:01;36.10;;;4.75;;
76617;SDS011;65509;42.816;74.648;2023-04-30T12:13:29;39.08;;;5.38;;
76617;SDS011;65509;42.816;74.648;2023-04-30T12:15:58;33.40;;;4.82;;
76617;SDS011;65509;42.816;74.648;2023-04-30T12:18:23;37.42;;;5.50;;
76617;SDS011;65509;42.816;74.648;2023-04-30T12:20:49;33.80;;;5.10;;
76617;SDS011;65509;42.816;74.648;2023-04-30T12:23:15;38.95;;;5.55;;
76617;SDS011;65509;42.816;74.648;2023-04-30T12:25:41;41.28;;;5.55;;
76617;SDS011;65509;42.816;74.648;2023-04-30T12:28:10;38.47;;;4.75;;
76617;SDS011;65509;42.816;74.648;2023-04-30T12:30:36;40.35;;;5.10;;
76617;SDS011;65509;42.816;74.648;2023-04-30T12:33:04;40.75;;;5.25;;
76617;SDS011;65509;42.816;74.648;2023-04-30T12:35:30;42.30;;;4.82;;
76617;SDS011;65509;42.816;74.648;2023-04-30T12:38:05;28.80;;;4.63;;
76617;SDS011;65509;42.816;74.648;2023-04-30T12:40:32;46.40;;;5.60;;
76617;SDS011;65509;42.816;74.648;2023-04-30T12:43:04;36.28;;;4.55;;
76617;SDS011;65509;42.816;74.648;2023-04-30T12:45:47;53.10;;;5.47;;
76617;SDS011;65509;42.816;74.648;2023-04-30T12:48:13;46.53;;;5.03;;
76617;SDS011;65509;42.816;74.648;2023-04-30T12:50:38;46.63;;;4.78;;
76617;SDS011;65509;42.816;74.648;2023-04-30T12:53:04;47.15;;;4.60;;
76617;SDS011;65509;42.816;74.648;2023-04-30T12:55:30;39.97;;;5.20;;
76617;SDS011;65509;42.816;74.648;2023-04-30T12:58:08;43.92;;;5.28;;
76617;SDS011;65509;42.816;74.648;2023-04-30T13:03:09;51.50;;;5.70;;
76617;SDS011;65509;42.816;74.648;2023-04-30T13:05:34;50.97;;;10.00;;
76617;SDS011;65509;42.816;74.648;2023-04-30T13:08:00;40.05;;;10.90;;
76617;SDS011;65509;42.816;74.648;2023-04-30T13:10:26;41.40;;;10.02;;
76617;SDS011;65509;42.816;74.648;2023-04-30T13:12:52;41.55;;;9.43;;
76617;SDS011;65509;42.816;74.648;2023-04-30T13:15:18;53.53;;;11.35;;
76617;SDS011;65509;42.816;74.648;2023-04-30T13:17:43;56.55;;;17.45;;
76617;SDS011;65509;42.816;74.648;2023-04-30T13:20:09;49.00;;;10.23;;
76617;SDS011;65509;42.816;74.648;2023-04-30T13:22:34;26.30;;;5.45;;
76617;SDS011;65509;42.816;74.648;2023-04-30T13:25:01;56.45;;;6.05;;
76617;SDS011;65509;42.816;74.648;2023-04-30T13:27:27;37.38;;;5.38;;
76617;SDS011;65509;42.816;74.648;2023-04-30T13:29:53;41.35;;;6.00;;
76617;SDS011;65509;42.816;74.648;2023-04-30T13:32:18;48.15;;;6.28;;
76617;SDS011;65509;42.816;74.648;2023-04-30T13:34:44;35.22;;;5.22;;
76617;SDS011;65509;42.816;74.648;2023-04-30T13:37:09;53.70;;;8.38;;
76617;SDS011;65509;42.816;74.648;2023-04-30T13:39:34;53.33;;;8.98;;
76617;SDS011;65509;42.816;74.648;2023-04-30T13:42:03;57.17;;;8.45;;
76617;SDS011;65509;42.816;74.648;2023-04-30T13:44:28;67.22;;;8.77;;
76617;SDS011;65509;42.816;74.648;2023-04-30T13:46:56;34.80;;;5.57;;
76617;SDS011;65509;42.816;74.648;2023-04-30T13:49:22;56.72;;;7.18;;
76617;SDS011;65509;42.816;74.648;2023-04-30T13:51:50;45.88;;;5.97;;
76617;SDS011;65509;42.816;74.648;2023-04-30T13:54:19;40.67;;;6.32;;
76617;SDS011;65509;42.816;74.648;2023-04-30T13:56:45;61.30;;;7.68;;
76617;SDS011;65509;42.816;74.648;2023-04-30T13:59:10;60.75;;;8.07;;
76617;SDS011;65509;42.816;74.648;2023-04-30T14:01:39;56.00;;;7.60;;
76617;SDS011;65509;42.816;74.648;2023-04-30T14:04:06;41.38;;;6.32;;
76617;SDS011;65509;42.816;74.648;2023-04-30T14:06:32;45.85;;;7.00;;
76617;SDS011;65509;42.816;74.648;2023-04-30T14:08:58;45.50;;;6.95;;
76617;SDS011;65509;42.816;74.648;2023-04-30T14:11:24;53.65;;;6.75;;
76617;SDS011;65509;42.816;74.648;2023-04-30T14:13:49;46.40;;;6.43;;
76617;SDS011;65509;42.816;74.648;2023-04-30T14:16:15;45.40;;;6.53;;
76617;SDS011;65509;42.816;74.648;2023-04-30T14:18:44;43.63;;;6.53;;
76617;SDS011;65509;42.816;74.648;2023-04-30T14:21:10;54.92;;;6.78;;
76617;SDS011;65509;42.816;74.648;2023-04-30T14:23:35;40.03;;;6.95;;
76617;SDS011;65509;42.816;74.648;2023-04-30T14:26:03;48.42;;;6.95;;
76617;SDS011;65509;42.816;74.648;2023-04-30T14:28:28;49.80;;;7.15;;
76617;SDS011;65509;42.816;74.648;2023-04-30T14:30:54;35.78;;;5.82;;
76617;SDS011;65509;42.816;74.648;2023-04-30T14:33:19;71.32;;;8.13;;
76617;SDS011;65509;42.816;74.648;2023-04-30T14:35:44;43.83;;;5.90;;
76617;SDS011;65509;42.816;74.648;2023-04-30T14:38:11;57.78;;;7.05;;
76617;SDS011;65509;42.816;74.648;2023-04-30T14:40:37;47.35;;;5.10;;
76617;SDS011;65509;42.816;74.648;2023-04-30T14:43:02;43.63;;;5.63;;
76617;SDS011;65509;42.816;74.648;2023-04-30T14:45:28;48.85;;;5.15;;